Buoy 41991

sailwx.info

Track history (hours):
 
Tides and Currents Weather Stations Pressure Air Temp Water Temp Dewpoint Dewpoint Depression Visibility Wind Speed Wind Dir Waves Ship Positions

Drifting buoy 41991

Last reported at 2015-May-22 07:11 UTC. Time now 2015-May-22 08:36 UTC.
Position N 26°54' W 041°21'.

Water temperature 22.9 ° C

Date/timePositionNaut miles runAvg speedWind from/ knotsBaromVisibWave heightAir tempDewpointWater temp
2015-May-22 07:11N 26°54' W 041°21'0 1.0 22.9
2015-May-22 06:56N 26°54' W 041°21'0 0.0 22.9
2015-May-22 06:17N 26°54' W 041°21'112.1 22.9
2015-May-22 06:12N 26°55' W 041°20'2 0.2 22.9
2015-May-21 20:16N 26°56' W 041°20'0 0.1 23.0
2015-May-21 17:50N 26°56' W 041°20'1 0.7 22.9
2015-May-21 16:10N 26°55' W 041°20'2 1.0 22.9
2015-May-21 13:58N 26°53' W 041°19'1 1.0 22.7
2015-May-21 13:12N 26°53' W 041°18'2 0.5 22.7
2015-May-21 09:11N 26°52' W 041°16'111.3 22.7
2015-May-21 09:08N 26°52' W 041°16'2 0.3 22.7
2015-May-21 01:36N 26°53' W 041°13'0 0.3 22.9
2015-May-21 00:50N 26°53' W 041°14'0 0.0 22.9
2015-May-20 23:56N 26°53' W 041°14'0 0.0 22.9
2015-May-20 23:55N 26°53' W 041°14'1 0.8 22.9
2015-May-20 23:08N 26°54' W 041°13'0 5.3 23.0
2015-May-20 23:05N 26°54' W 041°13'1 0.2 23.0
2015-May-20 17:58N 26°54' W 041°12'1 0.2 23.0
2015-May-20 13:36N 26°53' W 041°11'0 0.3 22.9
2015-May-20 11:54N 26°54' W 041°11'0 0.4 22.7
2015-May-20 10:55N 26°54' W 041°10'0 0.1 22.7
2015-May-20 09:16N 26°54' W 041°10'0 0.1 22.7
2015-May-20 07:09N 26°54' W 041°10'1 0.3 22.7
2015-May-20 04:57N 26°55' W 041°10'2 0.3 22.8
2015-May-19 21:08N 26°53' W 041°09'0 2.3 23.0
2015-May-19 20:55N 26°53' W 041°09'0 0.0 23.0
2015-May-19 19:57N 26°53' W 041°09'1 6.2 23.2
2015-May-19 19:51N 26°53' W 041°09'0 0.0 23.2
2015-May-19 19:12N 26°53' W 041°09'1 0.6 23.3
2015-May-19 18:11N 26°53' W 041°08'1 0.3 23.3
2015-May-19 13:55N 26°54' W 041°07'1 0.8 23.0
2015-May-19 12:08N 26°55' W 041°06'0 0.0 22.9
2015-May-19 09:54N 26°55' W 041°06'0 0.2 22.7
2015-May-19 09:36N 26°55' W 041°06'0 0.6 22.7
2015-May-19 09:20N 26°55' W 041°06'1 0.3 22.7
2015-May-19 07:40N 26°56' W 041°06'0 0.4 22.6
2015-May-19 06:52N 26°56' W 041°06'1 4.5 22.7
2015-May-19 06:32N 26°56' W 041°04'0 0.0 22.7
2015-May-19 06:09N 26°56' W 041°04'0 0.1 22.7
2015-May-19 05:07N 26°56' W 041°04'2 0.9 22.7
2015-May-19 03:27N 26°56' W 041°06'0 0.0 22.8
2015-May-19 01:27N 26°56' W 041°06'0 0.0 22.9
2015-May-19 00:39N 26°56' W 041°06'0 0.2 23.0
2015-May-18 23:53N 26°56' W 041°06'0 0.0 23.1
2015-May-18 23:49N 26°56' W 041°06'0 2.1 23.1
2015-May-18 23:46N 26°56' W 041°06'1 1.0 23.1
2015-May-18 22:52N 26°55' W 041°06'124.4 23.3
2015-May-18 22:49N 26°55' W 041°05'0 0.0 23.3
2015-May-18 21:07N 26°55' W 041°05'0 0.7 23.4
2015-May-18 20:28N 26°56' W 041°05'0 0.0 23.6
2015-May-18 20:22N 26°56' W 041°05'028.9
2015-May-18 20:21N 26°56' W 041°04'0 0.0 23.6
2015-May-18 19:54N 26°56' W 041°04'0 0.0 23.6
2015-May-18 19:27N 26°56' W 041°04'0 0.4 23.6
2015-May-18 18:19N 26°56' W 041°04'0 0.0 23.9
2015-May-18 18:10N 26°56' W 041°04'0 0.0 24.0
2015-May-18 17:44N 26°56' W 041°04'1 1.4 24.0
2015-May-18 16:43N 26°57' W 041°03'0 0.0 24.1
2015-May-18 14:58N 26°57' W 041°03'0 0.4 24.1
2015-May-18 14:13N 26°57' W 041°03'0 0.3 24.3
2015-May-18 12:33N 26°58' W 041°03'111.6
2015-May-18 12:28N 26°59' W 041°04'0 0.0
2015-May-18 11:40N 26°59' W 041°04'1 6.4 22.7
2015-May-18 11:35N 26°59' W 041°03'0 0.0 22.7
2015-May-18 10:16N 26°59' W 041°03'0 0.3 22.7
2015-May-18 09:42N 26°59' W 041°03'0 0.0 22.7
2015-May-18 08:11N 26°59' W 041°03'0 2.6 22.6
2015-May-18 08:04N 26°59' W 041°03'0 0.0 22.6
2015-May-18 08:01N 26°59' W 041°03'0 0.0 22.6
2015-May-18 06:58N 26°59' W 041°03'1 0.4 22.7
2015-May-18 05:20N 26°59' W 041°02'0 1.6 22.7
2015-May-18 05:11N 26°59' W 041°03'0 0.0 22.7
2015-May-18 03:40N 26°59' W 041°03'1 0.3 22.7
2015-May-18 00:58N 26°59' W 041°03'0 3.1 22.9
2015-May-18 00:54N 26°59' W 041°03'0 0.3 22.9
2015-May-18 00:12N 26°60' W 041°03'0 0.0 22.9
2015-May-17 23:20N 26°60' W 041°03'0 1.6 23.0
2015-May-17 23:11N 26°60' W 041°03'0 0.1 23.0
2015-May-17 22:28N 26°60' W 041°03'011.8
2015-May-17 22:26N 26°60' W 041°03'0 0.2 23.1
2015-May-17 21:13N 27°00' W 041°02'1 3.8 23.3
2015-May-17 20:57N 27°00' W 041°04'1 1.7 23.3
2015-May-17 20:20N 27°00' W 041°02'0 0.4 23.3
2015-May-17 19:40N 27°00' W 041°03'0 0.4 23.4
2015-May-17 18:36N 27°00' W 041°02'0 0.0 23.5
2015-May-17 17:57N 27°00' W 041°02'1 0.6 23.4
2015-May-17 16:55N 27°00' W 041°02'1 0.6 23.3
2015-May-17 15:11N 27°01' W 041°01'0 0.2 23.1
2015-May-17 12:50N 27°01' W 041°01'0 0.1 22.6
2015-May-17 11:57N 27°01' W 041°01'012.0 22.5
2015-May-17 11:55N 27°02' W 041°01'1 1.3 22.5
2015-May-17 11:10N 27°02' W 041°02'0 0.0 22.5
2015-May-17 10:19N 27°02' W 041°02'0 0.0 22.5
2015-May-17 09:57N 27°02' W 041°02'1 0.5 22.5
2015-May-17 08:44N 27°02' W 041°01'0 0.0 22.4
2015-May-17 08:39N 27°02' W 041°01'0 0.1 22.4
2015-May-17 08:12N 27°02' W 041°01'0 0.0 22.5
2015-May-17 08:09N 27°02' W 041°01'0 0.0 22.5
2015-May-17 07:11N 27°02' W 041°01'0 1.4 22.5
2015-May-17 07:03N 27°02' W 041°01'2 0.2 22.5
2015-May-16 22:47N 27°03' W 041°00'0 0.1 22.5
2015-May-16 19:04N 27°03' W 041°01'1 1.1 22.7
2015-May-16 18:09N 27°03' W 040°60'0 0.1 22.7
2015-May-16 17:06N 27°03' W 040°60'1 0.2 22.7
2015-May-16 14:01N 27°03' W 040°59'0 0.0 22.4
2015-May-16 13:20N 27°03' W 040°59'0 0.0 22.3
2015-May-16 13:14N 27°03' W 040°59'0 0.4 22.3
2015-May-16 12:15N 27°04' W 040°59'0 0.1 22.3
2015-May-16 10:05N 27°04' W 040°59'0 0.1 22.2
2015-May-16 08:20N 27°04' W 040°59'1 0.2 22.2
2015-May-16 04:05N 27°04' W 040°58'1 5.8 22.2
2015-May-16 03:58N 27°05' W 040°58'1 0.2 22.2
2015-May-15 23:57N 27°05' W 040°57'0 0.4 22.2
2015-May-15 23:11N 27°05' W 040°57'0 0.0 22.2
2015-May-15 23:09N 27°05' W 040°57'1 0.4 22.2
2015-May-15 21:08N 27°06' W 040°58'0 0.4 22.3
2015-May-15 20:02N 27°06' W 040°58'2 0.2 22.3
2015-May-15 11:57N 27°04' W 040°57'0 0.0
2015-May-15 11:55N 27°04' W 040°57'1 1.0 22.1
2015-May-15 11:03N 27°05' W 040°56'0 0.0 22.1
2015-May-15 09:54N 27°05' W 040°56'0 0.1 22.1
2015-May-15 08:10N 27°05' W 040°56'1 1.0 22.1
2015-May-15 06:57N 27°06' W 040°55'1 0.5 22.1
2015-May-15 05:53N 27°06' W 040°55'1 9.3 22.1
2015-May-15 05:49N 27°06' W 040°54'0 0.1 22.1
2015-May-15 04:11N 27°06' W 040°55'114.5 22.1
2015-May-15 04:06N 27°07' W 040°55'0 0.0 22.1
2015-May-14 22:41N 27°07' W 040°55'1 0.3 22.2
2015-May-14 20:12N 27°08' W 040°56'1 0.5 22.3
2015-May-14 18:12N 27°08' W 040°57'2 0.4 22.5
2015-May-14 13:57N 27°07' W 040°55'0 0.0
2015-May-14 12:21N 27°07' W 040°55'0 0.4 22.1
2015-May-14 12:12N 27°07' W 040°55'0 9.7
2015-May-14 12:10N 27°07' W 040°55'0 0.0 22.1
2015-May-14 11:22N 27°07' W 040°55'113.2 22.0
2015-May-14 11:18N 27°07' W 040°54'0 0.0 22.0
2015-May-14 10:16N 27°07' W 040°54'0 0.0 22.0
2015-May-14 08:52N 27°07' W 040°54'117.8
2015-May-14 08:49N 27°08' W 040°53'1 3.6 22.0
2015-May-14 08:38N 27°07' W 040°53'1 9.9 22.0
2015-May-14 08:34N 27°08' W 040°53'0 0.0 22.0
2015-May-14 07:11N 27°08' W 040°53'0 1.5 22.0
2015-May-14 06:56N 27°08' W 040°53'0 0.3 22.0
2015-May-14 06:04N 27°08' W 040°53'1 5.2 22.0
2015-May-14 05:57N 27°09' W 040°53'0 0.1 22.0
2015-May-14 04:23N 27°08' W 040°53'2 0.4 22.0
2015-May-13 23:52N 27°10' W 040°54'0 2.9 22.1
2015-May-13 23:46N 27°10' W 040°53'0 0.0
2015-May-13 22:58N 27°10' W 040°53'013.4 22.1
2015-May-13 22:56N 27°10' W 040°54'1 1.6 22.1
2015-May-13 22:10N 27°11' W 040°54'0 0.0 22.2
2015-May-13 20:25N 27°11' W 040°54'1 2.8 22.3
2015-May-13 20:14N 27°11' W 040°54'0 0.0 22.3
2015-May-13 19:47N 27°11' W 040°54'0 0.0 22.3
2015-May-13 19:44N 27°11' W 040°54'0 4.3 22.3
2015-May-13 19:40N 27°12' W 040°54'0 0.4 22.3
2015-May-13 18:43N 27°12' W 040°54'0 0.0
2015-May-13 17:39N 27°12' W 040°54'1 7.2 22.3
2015-May-13 17:34N 27°12' W 040°54'1 0.6 22.3
2015-May-13 15:57N 27°11' W 040°53'2 0.3 22.2
2015-May-13 10:56N 27°13' W 040°52'0 0.2 21.9
2015-May-13 09:00N 27°13' W 040°52'1 7.6 21.9
2015-May-13 08:55N 27°13' W 040°52'0 0.2 21.9
2015-May-13 06:11N 27°13' W 040°52'2 1.0 21.9
2015-May-13 04:27N 27°15' W 040°52'0 0.0
2015-May-13 01:02N 27°15' W 040°52'0 4.4 21.9
2015-May-13 00:57N 27°15' W 040°52'0 0.6 21.9
2015-May-13 00:12N 27°16' W 040°52'0 0.0 21.9
2015-May-12 23:22N 27°16' W 040°52'0 5.8 21.9
2015-May-12 23:17N 27°16' W 040°52'0 0.0 21.9
2015-May-12 22:36N 27°16' W 040°52'0 0.2 22.0
2015-May-12 21:57N 27°16' W 040°52'1 0.6 22.0
2015-May-12 20:10N 27°17' W 040°52'0 0.0 22.1
2015-May-12 18:57N 27°17' W 040°52'0 1.2 22.1
2015-May-12 18:53N 27°17' W 040°52'0 0.4 22.1
2015-May-12 17:51N 27°18' W 040°52'1 0.5 22.1
2015-May-12 16:11N 27°18' W 040°52'1 0.3 22.0
2015-May-12 13:48N 27°19' W 040°51'1 0.3 21.9
2015-May-12 12:03N 27°19' W 040°52'111.5 21.7
2015-May-12 11:58N 27°20' W 040°52'1 0.3 21.7
2015-May-12 09:12N 27°21' W 040°51'0 7.1 21.7
2015-May-12 09:08N 27°21' W 040°51'0 0.1 21.7
2015-May-12 07:50N 27°21' W 040°51'   21.7
Track history (hours):
 
Tides and Currents Weather Stations Pressure Air Temp Water Temp Dewpoint Dewpoint Depression Visibility Wind Speed Wind Dir Waves Ship Positions

Drifting buoy 41991

Last reported at 2015-May-22 07:11 UTC. Time now 2015-May-22 08:36 UTC.
Position N 26°54' W 041°21'.

Water temperature 22.9 ° C

Date/timePositionNaut miles runAvg speedWind from/ knotsBaromVisibWave heightAir tempDewpointWater temp
2015-May-22 07:11N 26°54' W 041°21'0 1.0 22.9
2015-May-22 06:56N 26°54' W 041°21'0 0.0 22.9
2015-May-22 06:17N 26°54' W 041°21'112.1 22.9
2015-May-22 06:12N 26°55' W 041°20'2 0.2 22.9
2015-May-21 20:16N 26°56' W 041°20'0 0.1 23.0
2015-May-21 17:50N 26°56' W 041°20'1 0.7 22.9
2015-May-21 16:10N 26°55' W 041°20'2 1.0 22.9
2015-May-21 13:58N 26°53' W 041°19'1 1.0 22.7
2015-May-21 13:12N 26°53' W 041°18'2 0.5 22.7
2015-May-21 09:11N 26°52' W 041°16'111.3 22.7
2015-May-21 09:08N 26°52' W 041°16'2 0.3 22.7
2015-May-21 01:36N 26°53' W 041°13'0 0.3 22.9
2015-May-21 00:50N 26°53' W 041°14'0 0.0 22.9
2015-May-20 23:56N 26°53' W 041°14'0 0.0 22.9
2015-May-20 23:55N 26°53' W 041°14'1 0.8 22.9
2015-May-20 23:08N 26°54' W 041°13'0 5.3 23.0
2015-May-20 23:05N 26°54' W 041°13'1 0.2 23.0
2015-May-20 17:58N 26°54' W 041°12'1 0.2 23.0
2015-May-20 13:36N 26°53' W 041°11'0 0.3 22.9
2015-May-20 11:54N 26°54' W 041°11'0 0.4 22.7
2015-May-20 10:55N 26°54' W 041°10'0 0.1 22.7
2015-May-20 09:16N 26°54' W 041°10'0 0.1 22.7
2015-May-20 07:09N 26°54' W 041°10'1 0.3 22.7
2015-May-20 04:57N 26°55' W 041°10'2 0.3 22.8
2015-May-19 21:08N 26°53' W 041°09'0 2.3 23.0
2015-May-19 20:55N 26°53' W 041°09'0 0.0 23.0
2015-May-19 19:57N 26°53' W 041°09'1 6.2 23.2
2015-May-19 19:51N 26°53' W 041°09'0 0.0 23.2
2015-May-19 19:12N 26°53' W 041°09'1 0.6 23.3
2015-May-19 18:11N 26°53' W 041°08'1 0.3 23.3
2015-May-19 13:55N 26°54' W 041°07'1 0.8 23.0
2015-May-19 12:08N 26°55' W 041°06'0 0.0 22.9
2015-May-19 09:54N 26°55' W 041°06'0 0.2 22.7
2015-May-19 09:36N 26°55' W 041°06'0 0.6 22.7
2015-May-19 09:20N 26°55' W 041°06'1 0.3 22.7
2015-May-19 07:40N 26°56' W 041°06'0 0.4 22.6
2015-May-19 06:52N 26°56' W 041°06'1 4.5 22.7
2015-May-19 06:32N 26°56' W 041°04'0 0.0 22.7
2015-May-19 06:09N 26°56' W 041°04'0 0.1 22.7
2015-May-19 05:07N 26°56' W 041°04'2 0.9 22.7
2015-May-19 03:27N 26°56' W 041°06'0 0.0 22.8
2015-May-19 01:27N 26°56' W 041°06'0 0.0 22.9
2015-May-19 00:39N 26°56' W 041°06'0 0.2 23.0
2015-May-18 23:53N 26°56' W 041°06'0 0.0 23.1
2015-May-18 23:49N 26°56' W 041°06'0 2.1 23.1
2015-May-18 23:46N 26°56' W 041°06'1 1.0 23.1
2015-May-18 22:52N 26°55' W 041°06'124.4 23.3
2015-May-18 22:49N 26°55' W 041°05'0 0.0 23.3
2015-May-18 21:07N 26°55' W 041°05'0 0.7 23.4
2015-May-18 20:28N 26°56' W 041°05'0 0.0 23.6
2015-May-18 20:22N 26°56' W 041°05'028.9
2015-May-18 20:21N 26°56' W 041°04'0 0.0 23.6
2015-May-18 19:54N 26°56' W 041°04'0 0.0 23.6
2015-May-18 19:27N 26°56' W 041°04'0 0.4 23.6
2015-May-18 18:19N 26°56' W 041°04'0 0.0 23.9
2015-May-18 18:10N 26°56' W 041°04'0 0.0 24.0
2015-May-18 17:44N 26°56' W 041°04'1 1.4 24.0
2015-May-18 16:43N 26°57' W 041°03'0 0.0 24.1
2015-May-18 14:58N 26°57' W 041°03'0 0.4 24.1
2015-May-18 14:13N 26°57' W 041°03'0 0.3 24.3
2015-May-18 12:33N 26°58' W 041°03'111.6
2015-May-18 12:28N 26°59' W 041°04'0 0.0
2015-May-18 11:40N 26°59' W 041°04'1 6.4 22.7
2015-May-18 11:35N 26°59' W 041°03'0 0.0 22.7
2015-May-18 10:16N 26°59' W 041°03'0 0.3 22.7
2015-May-18 09:42N 26°59' W 041°03'0 0.0 22.7
2015-May-18 08:11N 26°59' W 041°03'0 2.6 22.6
2015-May-18 08:04N 26°59' W 041°03'0 0.0 22.6
2015-May-18 08:01N 26°59' W 041°03'0 0.0 22.6
2015-May-18 06:58N 26°59' W 041°03'1 0.4 22.7
2015-May-18 05:20N 26°59' W 041°02'0 1.6 22.7
2015-May-18 05:11N 26°59' W 041°03'0 0.0 22.7
2015-May-18 03:40N 26°59' W 041°03'1 0.3 22.7
2015-May-18 00:58N 26°59' W 041°03'0 3.1 22.9
2015-May-18 00:54N 26°59' W 041°03'0 0.3 22.9
2015-May-18 00:12N 26°60' W 041°03'0 0.0 22.9
2015-May-17 23:20N 26°60' W 041°03'0 1.6 23.0
2015-May-17 23:11N 26°60' W 041°03'0 0.1 23.0
2015-May-17 22:28N 26°60' W 041°03'011.8
2015-May-17 22:26N 26°60' W 041°03'0 0.2 23.1
2015-May-17 21:13N 27°00' W 041°02'1 3.8 23.3
2015-May-17 20:57N 27°00' W 041°04'1 1.7 23.3
2015-May-17 20:20N 27°00' W 041°02'0 0.4 23.3
2015-May-17 19:40N 27°00' W 041°03'0 0.4 23.4
2015-May-17 18:36N 27°00' W 041°02'0 0.0 23.5
2015-May-17 17:57N 27°00' W 041°02'1 0.6 23.4
2015-May-17 16:55N 27°00' W 041°02'1 0.6 23.3
2015-May-17 15:11N 27°01' W 041°01'0 0.2 23.1
2015-May-17 12:50N 27°01' W 041°01'0 0.1 22.6
2015-May-17 11:57N 27°01' W 041°01'012.0 22.5
2015-May-17 11:55N 27°02' W 041°01'1 1.3 22.5
2015-May-17 11:10N 27°02' W 041°02'0 0.0 22.5
2015-May-17 10:19N 27°02' W 041°02'0 0.0 22.5
2015-May-17 09:57N 27°02' W 041°02'1 0.5 22.5
2015-May-17 08:44N 27°02' W 041°01'0 0.0 22.4
2015-May-17 08:39N 27°02' W 041°01'0 0.1 22.4
2015-May-17 08:12N 27°02' W 041°01'0 0.0 22.5
2015-May-17 08:09N 27°02' W 041°01'0 0.0 22.5
2015-May-17 07:11N 27°02' W 041°01'0 1.4 22.5
2015-May-17 07:03N 27°02' W 041°01'2 0.2 22.5
2015-May-16 22:47N 27°03' W 041°00'0 0.1 22.5
2015-May-16 19:04N 27°03' W 041°01'1 1.1 22.7
2015-May-16 18:09N 27°03' W 040°60'0 0.1 22.7
2015-May-16 17:06N 27°03' W 040°60'1 0.2 22.7
2015-May-16 14:01N 27°03' W 040°59'0 0.0 22.4
2015-May-16 13:20N 27°03' W 040°59'0 0.0 22.3
2015-May-16 13:14N 27°03' W 040°59'0 0.4 22.3
2015-May-16 12:15N 27°04' W 040°59'0 0.1 22.3
2015-May-16 10:05N 27°04' W 040°59'0 0.1 22.2
2015-May-16 08:20N 27°04' W 040°59'1 0.2 22.2
2015-May-16 04:05N 27°04' W 040°58'1 5.8 22.2
2015-May-16 03:58N 27°05' W 040°58'1 0.2 22.2
2015-May-15 23:57N 27°05' W 040°57'0 0.4 22.2
2015-May-15 23:11N 27°05' W 040°57'0 0.0 22.2
2015-May-15 23:09N 27°05' W 040°57'1 0.4 22.2
2015-May-15 21:08N 27°06' W 040°58'0 0.4 22.3
2015-May-15 20:02N 27°06' W 040°58'2 0.2 22.3
2015-May-15 11:57N 27°04' W 040°57'0 0.0
2015-May-15 11:55N 27°04' W 040°57'1 1.0 22.1
2015-May-15 11:03N 27°05' W 040°56'0 0.0 22.1
2015-May-15 09:54N 27°05' W 040°56'0 0.1 22.1
2015-May-15 08:10N 27°05' W 040°56'1 1.0 22.1
2015-May-15 06:57N 27°06' W 040°55'1 0.5 22.1
2015-May-15 05:53N 27°06' W 040°55'1 9.3 22.1
2015-May-15 05:49N 27°06' W 040°54'0 0.1 22.1
2015-May-15 04:11N 27°06' W 040°55'114.5 22.1
2015-May-15 04:06N 27°07' W 040°55'0 0.0 22.1
2015-May-14 22:41N 27°07' W 040°55'1 0.3 22.2
2015-May-14 20:12N 27°08' W 040°56'1 0.5 22.3
2015-May-14 18:12N 27°08' W 040°57'2 0.4 22.5
2015-May-14 13:57N 27°07' W 040°55'0 0.0
2015-May-14 12:21N 27°07' W 040°55'0 0.4 22.1
2015-May-14 12:12N 27°07' W 040°55'0 9.7
2015-May-14 12:10N 27°07' W 040°55'0 0.0 22.1
2015-May-14 11:22N 27°07' W 040°55'113.2 22.0
2015-May-14 11:18N 27°07' W 040°54'0 0.0 22.0
2015-May-14 10:16N 27°07' W 040°54'0 0.0 22.0
2015-May-14 08:52N 27°07' W 040°54'117.8
2015-May-14 08:49N 27°08' W 040°53'1 3.6 22.0
2015-May-14 08:38N 27°07' W 040°53'1 9.9 22.0
2015-May-14 08:34N 27°08' W 040°53'0 0.0 22.0
2015-May-14 07:11N 27°08' W 040°53'0 1.5 22.0
2015-May-14 06:56N 27°08' W 040°53'0 0.3 22.0
2015-May-14 06:04N 27°08' W 040°53'1 5.2 22.0
2015-May-14 05:57N 27°09' W 040°53'0 0.1 22.0
2015-May-14 04:23N 27°08' W 040°53'2 0.4 22.0
2015-May-13 23:52N 27°10' W 040°54'0 2.9 22.1
2015-May-13 23:46N 27°10' W 040°53'0 0.0
2015-May-13 22:58N 27°10' W 040°53'013.4 22.1
2015-May-13 22:56N 27°10' W 040°54'1 1.6 22.1
2015-May-13 22:10N 27°11' W 040°54'0 0.0 22.2
2015-May-13 20:25N 27°11' W 040°54'1 2.8 22.3
2015-May-13 20:14N 27°11' W 040°54'0 0.0 22.3
2015-May-13 19:47N 27°11' W 040°54'0 0.0 22.3
2015-May-13 19:44N 27°11' W 040°54'0 4.3 22.3
2015-May-13 19:40N 27°12' W 040°54'0 0.4 22.3
2015-May-13 18:43N 27°12' W 040°54'0 0.0
2015-May-13 17:39N 27°12' W 040°54'1 7.2 22.3
2015-May-13 17:34N 27°12' W 040°54'1 0.6 22.3
2015-May-13 15:57N 27°11' W 040°53'2 0.3 22.2
2015-May-13 10:56N 27°13' W 040°52'0 0.2 21.9
2015-May-13 09:00N 27°13' W 040°52'1 7.6 21.9
2015-May-13 08:55N 27°13' W 040°52'0 0.2 21.9
2015-May-13 06:11N 27°13' W 040°52'2 1.0 21.9
2015-May-13 04:27N 27°15' W 040°52'0 0.0
2015-May-13 01:02N 27°15' W 040°52'0 4.4 21.9
2015-May-13 00:57N 27°15' W 040°52'0 0.6 21.9
2015-May-13 00:12N 27°16' W 040°52'0 0.0 21.9
2015-May-12 23:22N 27°16' W 040°52'0 5.8 21.9
2015-May-12 23:17N 27°16' W 040°52'0 0.0 21.9
2015-May-12 22:36N 27°16' W 040°52'0 0.2 22.0
2015-May-12 21:57N 27°16' W 040°52'1 0.6 22.0
2015-May-12 20:10N 27°17' W 040°52'0 0.0 22.1
2015-May-12 18:57N 27°17' W 040°52'0 1.2 22.1
2015-May-12 18:53N 27°17' W 040°52'0 0.4 22.1
2015-May-12 17:51N 27°18' W 040°52'1 0.5 22.1
2015-May-12 16:11N 27°18' W 040°52'1 0.3 22.0
2015-May-12 13:48N 27°19' W 040°51'1 0.3 21.9
2015-May-12 12:03N 27°19' W 040°52'111.5 21.7
2015-May-12 11:58N 27°20' W 040°52'1 0.3 21.7
2015-May-12 09:12N 27°21' W 040°51'0 7.1 21.7
2015-May-12 09:08N 27°21' W 040°51'0 0.1 21.7
2015-May-12 07:50N 27°21' W 040°51'   21.7

Dump ship's entire track history